Time;durP1;ratioP1;P1;durP2;ratioP2;P2;SDS_P1;SDS_P2;PMS_P1;PMS_P2;Temp;Humidity;BMP_temperature;BMP_pressure;BME280_temperature;BME280_humidity;BME280_pressure;Samples;Min_cycle;Max_cycle;Signal;HPM_P1;HPM_P2
2023/02/05 00:01:57;;;;;;;3.00;0.68;;;30.10;49.70;;;;;;5010171;28;20026;-62
2023/02/05 00:04:25;;;;;;;8.23;1.20;;;30.30;51.60;;;;;;5013341;28;20032;-61
2023/02/05 00:06:52;;;;;;;3.38;0.88;;;30.60;47.90;;;;;;5022101;28;20045;-61
2023/02/05 00:09:19;;;;;;;2.70;0.70;;;30.50;47.30;;;;;;5012317;28;20028;-60
2023/02/05 00:11:47;;;;;;;2.50;0.93;;;30.60;46.30;;;;;;5020895;28;20025;-62
2023/02/05 00:14:14;;;;;;;3.63;0.82;;;30.80;48.60;;;;;;5010316;28;20060;-62
2023/02/05 00:16:41;;;;;;;3.17;0.88;;;30.80;47.20;;;;;;5013442;28;20113;-62
2023/02/05 00:19:09;;;;;;;5.78;0.63;;;30.70;50.50;;;;;;5009356;28;20026;-62
2023/02/05 00:21:36;;;;;;;4.03;0.80;;;31.10;48.80;;;;;;5012323;28;20032;-64
2023/02/05 00:24:04;;;;;;;0.98;0.47;;;31.40;45.80;;;;;;5011830;28;20034;-62
2023/02/05 00:26:31;;;;;;;3.53;0.80;;;31.50;47.60;;;;;;5000630;28;20069;-62
2023/02/05 00:28:59;;;;;;;2.28;0.60;;;31.70;44.00;;;;;;5022769;28;20013;-61
2023/02/05 00:31:26;;;;;;;3.80;0.90;;;31.30;44.00;;;;;;5011834;28;20244;-61
2023/02/05 00:33:54;;;;;;;4.22;0.70;;;30.60;45.70;;;;;;5008441;28;20061;-65
2023/02/05 00:36:22;;;;;;;5.55;0.90;;;30.70;46.60;;;;;;5009681;28;20030;-64
2023/02/05 00:38:50;;;;;;;2.83;0.68;;;30.80;46.80;;;;;;4991041;28;20045;-64
2023/02/05 00:41:18;;;;;;;4.18;0.85;;;30.80;45.60;;;;;;5017397;28;20030;-64
2023/02/05 00:43:46;;;;;;;4.05;1.13;;;30.90;46.10;;;;;;5023116;28;20494;-63
2023/02/05 00:46:14;;;;;;;2.65;1.02;;;30.80;46.50;;;;;;5007661;28;20036;-65
2023/02/05 00:48:42;;;;;;;2.97;0.70;;;30.90;43.70;;;;;;5013210;28;20025;-63
2023/02/05 00:51:10;;;;;;;2.63;0.60;;;30.90;47.00;;;;;;5009195;28;20032;-64
2023/02/05 00:53:38;;;;;;;2.78;0.88;;;31.20;45.20;;;;;;5011167;28;20076;-64
2023/02/05 00:56:06;;;;;;;2.20;0.60;;;31.20;43.00;;;;;;5011237;28;20034;-65
2023/02/05 00:58:33;;;;;;;3.45;0.75;;;30.90;43.20;;;;;;5013310;28;20479;-65
2023/02/05 01:01:00;;;;;;;3.03;0.85;;;31.00;46.10;;;;;;5017405;28;20033;-65
2023/02/05 01:03:28;;;;;;;3.88;0.80;;;31.00;43.20;;;;;;5012143;28;20017;-65
2023/02/05 01:05:55;;;;;;;5.68;0.93;;;31.30;43.30;;;;;;5007030;28;20052;-64
2023/02/05 01:08:23;;;;;;;3.13;0.90;;;31.60;46.80;;;;;;5009161;28;20095;-63
2023/02/05 01:10:51;;;;;;;2.47;0.68;;;31.70;44.40;;;;;;5016573;28;20364;-64
2023/02/05 01:13:19;;;;;;;2.25;0.73;;;31.70;44.60;;;;;;5012922;28;20038;-65
2023/02/05 01:15:46;;;;;;;1.60;0.68;;;31.70;42.20;;;;;;5012261;28;20029;-64
2023/02/05 01:18:13;;;;;;;2.47;0.75;;;31.70;44.00;;;;;;4993804;28;20415;-65
2023/02/05 01:20:42;;;;;;;4.18;0.82;;;31.50;41.80;;;;;;5009658;28;20105;-65
2023/02/05 01:23:10;;;;;;;3.38;0.80;;;31.50;44.40;;;;;;4992090;28;20030;-64
2023/02/05 01:25:38;;;;;;;1.90;0.65;;;31.70;41.20;;;;;;5010036;28;20041;-65
2023/02/05 01:28:05;;;;;;;1.40;0.60;;;31.60;40.50;;;;;;5010904;28;20076;-65
2023/02/05 01:30:33;;;;;;;3.13;0.57;;;31.50;40.60;;;;;;5012823;28;20029;-64
2023/02/05 01:33:01;;;;;;;2.90;0.85;;;31.60;42.10;;;;;;5013699;28;20538;-64
2023/02/05 01:35:29;;;;;;;3.88;0.90;;;31.70;41.00;;;;;;5002404;28;20029;-64
2023/02/05 01:37:56;;;;;;;1.83;0.60;;;31.80;43.20;;;;;;5018469;28;20725;-64
2023/02/05 01:40:24;;;;;;;2.40;0.40;;;31.60;41.30;;;;;;5009776;28;20014;-64
2023/02/05 01:42:51;;;;;;;2.15;0.60;;;31.20;44.10;;;;;;5007349;28;20033;-65
2023/02/05 01:45:24;;;;;;;2.17;0.70;;;31.20;42.80;;;;;;5010332;28;20113;-64
2023/02/05 01:48:03;;;;;;;2.85;0.88;;;31.30;43.50;;;;;;5002562;28;20471;-64
2023/02/05 01:50:33;;;;;;;3.13;0.60;;;31.40;44.00;;;;;;5009440;28;20029;-65
2023/02/05 01:53:05;;;;;;;3.35;0.60;;;31.70;46.00;;;;;;5015359;28;20025;-65
2023/02/05 01:55:35;;;;;;;3.58;0.73;;;31.90;43.50;;;;;;5010095;28;20018;-65
2023/02/05 01:58:03;;;;;;;3.50;0.70;;;31.80;43.70;;;;;;5011845;28;20021;-65
2023/02/05 02:00:30;;;;;;;2.60;0.73;;;31.90;43.10;;;;;;5015660;28;20044;-64
2023/02/05 02:02:59;;;;;;;2.05;0.80;;;31.90;41.80;;;;;;5012050;28;20103;-64
2023/02/05 02:05:26;;;;;;;3.05;0.82;;;31.90;42.40;;;;;;5008571;28;20045;-66
2023/02/05 02:07:53;;;;;;;2.95;0.75;;;31.90;40.40;;;;;;5013305;28;20025;-64
2023/02/05 02:10:21;;;;;;;3.78;0.95;;;31.70;42.50;;;;;;5012025;28;20014;-65
2023/02/05 02:12:49;;;;;;;2.60;0.60;;;32.20;40.90;;;;;;5013507;28;20028;-65
2023/02/05 02:15:21;;;;;;;2.33;0.50;;;32.40;41.50;;;;;;5012762;28;20052;-65
2023/02/05 02:17:55;;;;;;;2.72;0.60;;;32.80;41.70;;;;;;5013091;28;20463;-64
2023/02/05 02:20:24;;;;;;;;;;;32.70;40.30;;;;;;5032931;28;20080;-65
2023/02/05 02:22:55;;;;;;;3.42;0.93;;;32.60;41.00;;;;;;5017757;28;19967;-64
2023/02/05 02:25:46;;;;;;;4.40;1.03;;;32.60;44.20;;;;;;5012620;28;20050;-64
2023/02/05 02:28:50;;;;;;;4.30;0.80;;;32.60;42.80;;;;;;5013133;28;20534;-65
2023/02/05 02:31:30;;;;;;;3.03;1.05;;;32.60;40.50;;;;;;5006764;28;20045;-65
2023/02/05 02:34:17;;;;;;;2.13;0.65;;;32.20;40.80;;;;;;4994211;28;20022;-65
2023/02/05 02:37:07;;;;;;;1.80;0.90;;;32.00;41.60;;;;;;5001673;28;20156;-65
2023/02/05 02:39:51;;;;;;;1.90;0.82;;;32.00;41.30;;;;;;4992575;28;20030;-65
2023/02/05 02:42:37;;;;;;;3.47;0.50;;;32.10;41.70;;;;;;5022851;28;20061;-64
2023/02/05 02:45:09;;;;;;;2.95;0.85;;;32.60;41.30;;;;;;5012638;28;20032;-65
2023/02/05 02:47:42;;;;;;;2.97;0.60;;;32.70;39.40;;;;;;5016212;28;20037;-65
2023/02/05 02:50:34;;;;;;;1.73;0.70;;;32.80;41.90;;;;;;5012725;28;20112;-66
2023/02/05 02:53:41;;;;;;;3.50;0.73;;;32.70;39.70;;;;;;4994849;28;20072;-66
2023/02/05 02:56:13;;;;;;;2.28;0.52;;;32.70;45.10;;;;;;5013616;28;20041;-66
2023/02/05 02:58:46;;;;;;;4.05;0.70;;;32.90;45.90;;;;;;5012378;28;20387;-66
2023/02/05 03:01:17;;;;;;;4.25;0.70;;;33.30;42.70;;;;;;5012164;28;20052;-66
2023/02/05 03:03:50;;;;;;;3.35;0.80;;;33.70;44.30;;;;;;4994344;28;20037;-66
2023/02/05 03:06:20;;;;;;;4.03;0.80;;;34.00;45.90;;;;;;4994446;28;20415;-66
2023/02/05 03:09:12;;;;;;;1.95;0.60;;;34.10;40.80;;;;;;5012033;28;20483;-66
2023/02/05 03:11:39;;;;;;;3.22;0.77;;;34.20;41.60;;;;;;5012608;28;20105;-66
2023/02/05 03:14:07;;;;;;;3.33;0.70;;;34.30;41.60;;;;;;5011790;28;20046;-66
2023/02/05 03:16:34;;;;;;;2.70;0.60;;;34.10;39.00;;;;;;5012479;28;20144;-65
2023/02/05 03:19:05;;;;;;;2.35;0.70;;;33.90;40.00;;;;;;4994387;28;20053;-65
2023/02/05 03:21:42;;;;;;;2.50;0.82;;;33.60;40.80;;;;;;4994122;28;20026;-66
2023/02/05 03:24:09;;;;;;;7.40;1.30;;;33.50;41.00;;;;;;5012322;28;20049;-66
2023/02/05 03:26:40;;;;;;;4.18;0.80;;;33.50;43.20;;;;;;5012040;28;20122;-65
2023/02/05 03:29:17;;;;;;;6.00;1.17;;;33.50;41.80;;;;;;5014873;28;20049;-67
2023/02/05 03:31:59;;;;;;;6.45;1.17;;;34.00;43.60;;;;;;5004542;28;20048;-66
2023/02/05 03:34:42;;;;;;;9.68;1.90;;;34.30;43.90;;;;;;5007087;28;20113;-65
2023/02/05 03:37:41;;;;;;;2.17;0.75;;;34.60;39.50;;;;;;5011969;28;20076;-65
2023/02/05 03:40:26;;;;;;;2.90;0.98;;;34.20;39.90;;;;;;4980151;28;20030;-66
2023/02/05 03:43:12;;;;;;;2.92;0.60;;;33.80;39.90;;;;;;5011747;28;20026;-66
2023/02/05 03:45:48;;;;;;;2.15;0.50;;;33.70;38.80;;;;;;5010800;28;20445;-66
2023/02/05 03:48:27;;;;;;;3.60;0.88;;;33.60;40.50;;;;;;5011478;28;20026;-66
2023/02/05 03:51:13;;;;;;;1.65;0.70;;;33.70;40.40;;;;;;5011125;28;20491;-66
2023/02/05 03:54:00;;;;;;;3.15;0.77;;;33.70;41.10;;;;;;5011713;28;20034;-66
2023/02/05 03:56:44;;;;;;;3.40;0.60;;;33.70;39.40;;;;;;5011521;28;20033;-66
2023/02/05 03:59:15;;;;;;;1.48;0.45;;;33.60;39.60;;;;;;5011143;28;20025;-66
2023/02/05 04:01:44;;;;;;;6.43;1.00;;;33.50;41.50;;;;;;5011164;28;20398;-66
2023/02/05 04:04:12;;;;;;;3.05;0.80;;;33.60;39.80;;;;;;5011204;28;20022;-66
2023/02/05 04:06:40;;;;;;;2.97;0.98;;;33.40;41.90;;;;;;5011105;28;20060;-66
2023/02/05 04:09:09;;;;;;;4.05;0.60;;;33.40;40.00;;;;;;5011446;28;20073;-66
2023/02/05 04:11:37;;;;;;;2.28;0.70;;;33.40;39.90;;;;;;4991837;28;20057;-66
2023/02/05 04:14:05;;;;;;;1.33;0.55;;;33.30;41.20;;;;;;4990034;28;20080;-66
2023/02/05 04:16:32;;;;;;;2.13;0.70;;;33.20;42.20;;;;;;4991306;28;20030;-66
2023/02/05 04:18:59;;;;;;;5.35;0.90;;;32.90;38.70;;;;;;4991362;28;20132;-66
2023/02/05 04:21:27;;;;;;;3.97;0.52;;;32.90;41.90;;;;;;4991438;28;20113;-66
2023/02/05 04:23:54;;;;;;;2.20;0.60;;;32.90;39.00;;;;;;5010678;28;20030;-66
2023/02/05 04:26:22;;;;;;;3.53;0.75;;;32.90;41.90;;;;;;5010736;28;20065;-66
2023/02/05 04:28:49;;;;;;;1.63;0.55;;;33.10;38.70;;;;;;5010717;28;20506;-66
2023/02/05 04:31:16;;;;;;;4.90;1.00;;;33.00;43.50;;;;;;5010653;28;20036;-66
2023/02/05 04:33:44;;;;;;;2.00;1.05;;;33.30;41.00;;;;;;5010804;28;20022;-66
2023/02/05 04:36:13;;;;;;;7.13;1.13;;;33.30;39.60;;;;;;5010640;28;20029;-66
2023/02/05 04:38:40;;;;;;;2.47;0.75;;;33.10;42.00;;;;;;5010628;28;20022;-66
2023/02/05 04:41:08;;;;;;;4.93;1.08;;;32.90;44.10;;;;;;5011099;28;20033;-66
2023/02/05 04:43:35;;;;;;;4.63;1.45;;;32.20;43.50;;;;;;5010734;28;20026;-67
2023/02/05 04:46:07;;;;;;;3.78;1.00;;;31.70;44.30;;;;;;5010500;28;20118;-66
2023/02/05 04:48:34;;;;;;;4.57;0.98;;;31.40;45.90;;;;;;5010455;28;20018;-67
2023/02/05 04:51:07;;;;;;;3.53;0.70;;;31.30;45.80;;;;;;5009968;28;20034;-67
2023/02/05 04:53:35;;;;;;;4.28;0.93;;;31.10;46.30;;;;;;5010660;28;20057;-66
2023/02/05 04:56:07;;;;;;;6.03;0.70;;;31.00;46.80;;;;;;5010084;28;20030;-66
2023/02/05 04:58:35;;;;;;;4.32;0.85;;;30.40;47.60;;;;;;5010191;28;20022;-66
2023/02/05 05:01:03;;;;;;;2.80;0.93;;;30.10;47.90;;;;;;5010044;28;20029;-66
2023/02/05 05:03:30;;;;;;;8.60;1.25;;;29.80;48.90;;;;;;5010130;28;20034;-66
2023/02/05 05:06:04;;;;;;;4.38;1.63;;;29.60;49.70;;;;;;5009969;28;20509;-66
2023/02/05 05:08:31;;;;;;;2.58;0.82;;;29.60;49.60;;;;;;5009987;28;20022;-65
2023/02/05 05:10:59;;;;;;;3.78;1.10;;;29.60;50.80;;;;;;4992405;28;20117;-66
2023/02/05 05:13:26;;;;;;;3.92;0.88;;;29.90;49.10;;;;;;5009542;28;20049;-66
2023/02/05 05:15:56;;;;;;;4.50;0.80;;;29.80;49.40;;;;;;5010030;28;20025;-66
2023/02/05 05:18:24;;;;;;;2.58;0.73;;;29.90;49.00;;;;;;5009889;28;20382;-66
2023/02/05 05:20:51;;;;;;;2.03;0.80;;;29.90;49.30;;;;;;5010098;28;20022;-66
2023/02/05 05:23:18;;;;;;;4.55;1.00;;;29.80;49.30;;;;;;5009868;28;20110;-66
2023/02/05 05:25:47;;;;;;;5.15;1.20;;;29.80;49.70;;;;;;5009297;28;20049;-66
2023/02/05 05:28:16;;;;;;;4.97;1.05;;;29.60;49.90;;;;;;5009846;28;20033;-66
2023/02/05 05:30:45;;;;;;;4.38;1.10;;;29.70;50.30;;;;;;5009591;28;20060;-63
2023/02/05 05:33:13;;;;;;;4.00;1.30;;;29.60;50.20;;;;;;5021702;28;20037;-65
2023/02/05 05:35:40;;;;;;;4.53;0.82;;;29.60;50.40;;;;;;5002159;28;20037;-66
2023/02/05 05:38:08;;;;;;;4.72;0.93;;;29.50;50.70;;;;;;5011335;28;20117;-65
2023/02/05 05:46:07;;;;;;;3.42;0.70;;;29.10;50.70;;;;;;5010168;28;20048;-64
2023/02/05 05:48:34;;;;;;;1.38;0.50;;;29.00;50.50;;;;;;5009552;28;20483;-65
2023/02/05 05:51:02;;;;;;;6.63;1.08;;;28.90;50.30;;;;;;5009737;28;20030;-65
2023/02/05 05:53:30;;;;;;;7.10;1.52;;;28.60;50.50;;;;;;5009147;28;20025;-65
2023/02/05 05:55:57;;;;;;;5.82;1.23;;;28.60;51.20;;;;;;4990011;28;20479;-65
2023/02/05 05:58:24;;;;;;;2.10;0.70;;;28.40;51.10;;;;;;5007616;28;20088;-65
2023/02/05 06:00:52;;;;;;;5.70;1.10;;;28.40;51.30;;;;;;5007763;28;20028;-64
2023/02/05 06:03:21;;;;;;;6.22;0.80;;;28.40;52.10;;;;;;5007760;28;20045;-65
2023/02/05 06:05:48;;;;;;;7.45;0.90;;;28.60;51.30;;;;;;4989566;28;20048;-65
2023/02/05 06:08:15;;;;;;;4.65;1.25;;;28.60;51.70;;;;;;4990322;28;20029;-65
2023/02/05 06:10:43;;;;;;;9.05;1.42;;;28.60;51.60;;;;;;5009336;28;20069;-65
2023/02/05 06:13:10;;;;;;;6.78;1.10;;;28.60;51.40;;;;;;5009394;28;20041;-64
2023/02/05 06:15:38;;;;;;;8.32;1.00;;;28.50;51.90;;;;;;5009666;28;20022;-65
2023/02/05 06:18:05;;;;;;;5.43;1.10;;;28.40;51.40;;;;;;5009776;28;20087;-65
2023/02/05 06:20:32;;;;;;;3.75;0.93;;;28.30;50.90;;;;;;5009175;28;20022;-65
2023/02/05 06:23:00;;;;;;;2.60;0.80;;;28.30;52.00;;;;;;5008928;28;20391;-64
2023/02/05 06:25:27;;;;;;;4.55;0.95;;;28.30;51.20;;;;;;5009313;28;20041;-63
2023/02/05 06:27:55;;;;;;;4.75;1.05;;;28.10;52.00;;;;;;5009120;28;20030;-64
2023/02/05 06:30:22;;;;;;;3.38;1.13;;;27.80;52.20;;;;;;5009390;28;20053;-64
2023/02/05 06:32:49;;;;;;;2.10;0.68;;;27.80;53.50;;;;;;5009475;28;20037;-65
2023/02/05 06:35:16;;;;;;;4.35;0.95;;;27.80;53.10;;;;;;5009347;28;20026;-65
2023/02/05 06:37:44;;;;;;;4.65;1.05;;;28.00;52.90;;;;;;5010419;28;20034;-64
2023/02/05 06:40:14;;;;;;;4.82;1.10;;;28.00;52.70;;;;;;5013023;28;20164;-64
2023/02/05 06:42:41;;;;;;;5.65;0.88;;;28.00;52.80;;;;;;5013104;28;20077;-64
2023/02/05 06:45:09;;;;;;;3.17;0.60;;;28.20;53.20;;;;;;5013108;28;20014;-64
2023/02/05 06:47:37;;;;;;;3.92;0.80;;;28.00;53.10;;;;;;5012755;28;20033;-65
2023/02/05 06:50:06;;;;;;;4.45;0.80;;;27.80;53.40;;;;;;5012691;28;20097;-64
2023/02/05 06:52:34;;;;;;;4.45;0.95;;;27.60;53.50;;;;;;5012693;28;20589;-64
2023/02/05 06:55:01;;;;;;;1.80;0.80;;;27.40;53.10;;;;;;5012522;28;20030;-63
2023/02/05 06:57:28;;;;;;;4.55;1.00;;;27.30;54.10;;;;;;5012300;28;20026;-63
2023/02/05 06:59:55;;;;;;;2.47;0.85;;;27.20;54.60;;;;;;5012383;28;20026;-64
2023/02/05 07:02:23;;;;;;;3.92;0.85;;;27.10;54.50;;;;;;5012564;28;20525;-64
2023/02/05 07:04:50;;;;;;;6.72;1.30;;;27.20;54.40;;;;;;4995058;28;20030;-64
2023/02/05 07:07:17;;;;;;;5.43;0.90;;;27.30;55.00;;;;;;4994619;28;20044;-63
2023/02/05 07:09:45;;;;;;;4.10;0.80;;;27.30;54.40;;;;;;5012080;28;20025;-64
2023/02/05 07:12:12;;;;;;;4.60;1.30;;;27.10;54.60;;;;;;4997561;28;20026;-64
2023/02/05 07:14:40;;;;;;;5.63;0.95;;;27.00;55.60;;;;;;5012057;28;20034;-63
2023/02/05 07:17:08;;;;;;;6.43;1.10;;;27.00;54.70;;;;;;5015483;28;20065;-63
2023/02/05 07:19:36;;;;;;;5.55;0.90;;;27.00;55.50;;;;;;5010646;28;20026;-63
2023/02/05 07:22:04;;;;;;;3.67;0.88;;;26.80;55.50;;;;;;5008781;28;20096;-62
2023/02/05 07:24:32;;;;;;;3.38;1.00;;;26.60;56.20;;;;;;4996560;28;20696;-63
2023/02/05 07:26:59;;;;;;;4.43;0.80;;;26.50;56.60;;;;;;5014129;28;20037;-64
2023/02/05 07:29:27;;;;;;;3.90;0.77;;;26.50;56.90;;;;;;5010377;28;20113;-63
2023/02/05 07:31:55;;;;;;;2.72;0.98;;;26.40;57.40;;;;;;5003322;28;20454;-63
2023/02/05 07:34:22;;;;;;;4.25;0.75;;;26.50;57.20;;;;;;5014535;28;20022;-64
2023/02/05 07:36:51;;;;;;;7.03;1.00;;;26.40;57.50;;;;;;4993904;28;20117;-65
2023/02/05 07:39:18;;;;;;;3.95;1.00;;;26.40;57.50;;;;;;5011457;28;20545;-63
2023/02/05 07:41:46;;;;;;;1.63;0.57;;;26.40;57.20;;;;;;5011464;28;20498;-64
2023/02/05 07:44:13;;;;;;;3.17;1.40;;;26.30;58.00;;;;;;4995065;28;20033;-63
2023/02/05 07:46:40;;;;;;;5.38;1.05;;;26.20;57.30;;;;;;5012919;28;20070;-65
2023/02/05 07:49:10;;;;;;;5.30;0.82;;;26.00;57.50;;;;;;5022085;28;20076;-63
2023/02/05 07:51:37;;;;;;;5.78;1.00;;;25.80;58.30;;;;;;5010336;28;20026;-62
2023/02/05 07:54:09;;;;;;;5.10;0.90;;;25.80;58.50;;;;;;5010038;28;20570;-63
2023/02/05 07:56:36;;;;;;;5.60;1.05;;;25.70;58.50;;;;;;5011467;28;20040;-63
2023/02/05 07:59:05;;;;;;;3.45;1.17;;;25.60;58.90;;;;;;5020945;28;20029;-62
2023/02/05 08:01:33;;;;;;;6.78;0.90;;;25.50;59.10;;;;;;5000438;28;20529;-63
2023/02/05 08:04:01;;;;;;;4.30;1.25;;;25.40;59.50;;;;;;5007464;28;20446;-63
2023/02/05 08:06:28;;;;;;;4.43;1.20;;;25.40;59.80;;;;;;5007336;28;20025;-64
2023/02/05 08:08:56;;;;;;;9.52;1.05;;;25.30;60.30;;;;;;4990264;28;20029;-63
2023/02/05 08:11:24;;;;;;;4.05;0.93;;;25.20;61.00;;;;;;5008425;28;20039;-64
2023/02/05 08:13:51;;;;;;;4.15;1.30;;;25.10;60.40;;;;;;5027333;28;20095;-64
2023/02/05 08:16:19;;;;;;;5.65;0.73;;;25.00;60.70;;;;;;5002198;28;20030;-64
2023/02/05 08:18:50;;;;;;;3.50;0.73;;;24.90;61.10;;;;;;5008897;28;20036;-64
2023/02/05 08:21:20;;;;;;;5.13;2.05;;;24.90;62.20;;;;;;5022129;28;20075;-64
2023/02/05 08:23:48;;;;;;;7.53;1.10;;;24.70;63.00;;;;;;5008454;28;20022;-63
2023/02/05 08:26:16;;;;;;;3.08;0.77;;;24.60;64.00;;;;;;5005721;28;20034;-64
2023/02/05 08:28:44;;;;;;;5.40;1.05;;;24.50;65.10;;;;;;4998652;28;20442;-63
2023/02/05 08:31:17;;;;;;;6.05;1.00;;;24.50;65.80;;;;;;5007328;28;20026;-63
2023/02/05 08:33:46;;;;;;;4.00;0.73;;;24.30;66.30;;;;;;5006695;28;20117;-63
2023/02/05 08:36:14;;;;;;;3.15;1.10;;;24.20;66.80;;;;;;5003531;28;20408;-64
2023/02/05 08:38:41;;;;;;;4.13;1.17;;;24.20;68.00;;;;;;5006851;28;20030;-63
2023/02/05 08:41:12;;;;;;;6.10;0.90;;;24.10;69.00;;;;;;5007044;28;20026;-63
2023/02/05 08:43:45;;;;;;;3.25;1.27;;;24.00;69.80;;;;;;5009741;28;20026;-63
2023/02/05 08:46:17;;;;;;;5.10;0.75;;;23.90;70.50;;;;;;5027805;28;20041;-64
2023/02/05 08:48:44;;;;;;;5.70;1.02;;;23.80;71.20;;;;;;5013389;28;20030;-65
2023/02/05 08:51:13;;;;;;;5.15;1.42;;;23.70;72.30;;;;;;5006970;28;20091;-63
2023/02/05 08:53:41;;;;;;;9.10;1.02;;;23.60;73.50;;;;;;5006988;28;20024;-64
2023/02/05 08:56:09;;;;;;;2.63;0.90;;;23.50;75.70;;;;;;5006869;28;20036;-64
2023/02/05 08:58:38;;;;;;;5.88;0.80;;;23.50;78.10;;;;;;5006579;28;20050;-65
2023/02/05 09:01:11;;;;;;;5.28;1.05;;;23.40;80.40;;;;;;5006506;28;20044;-63
2023/02/05 09:03:38;;;;;;;3.92;0.65;;;23.30;82.50;;;;;;5004481;28;20133;-69
2023/02/05 09:06:08;;;;;;;5.15;0.93;;;23.20;84.40;;;;;;5006819;28;20042;-64
2023/02/05 09:08:36;;;;;;;7.22;0.90;;;23.20;86.80;;;;;;4992786;28;20442;-64
2023/02/05 09:11:05;;;;;;;6.00;1.08;;;23.10;89.00;;;;;;5006560;28;20506;-64
2023/02/05 09:13:32;;;;;;;6.47;1.10;;;23.00;90.30;;;;;;5005993;28;20077;-65
2023/02/05 09:16:00;;;;;;;3.88;1.35;;;22.90;91.10;;;;;;5023897;28;20032;-65
2023/02/05 09:18:27;;;;;;;2.50;0.70;;;22.80;92.20;;;;;;5027082;28;20029;-65
2023/02/05 09:20:54;;;;;;;3.78;0.90;;;22.80;93.50;;;;;;5013244;28;20394;-65
2023/02/05 09:23:22;;;;;;;6.32;0.95;;;22.80;94.00;;;;;;5007644;28;20032;-65
2023/02/05 09:25:49;;;;;;;5.40;1.13;;;22.70;94.40;;;;;;5010124;28;20041;-65
2023/02/05 09:28:17;;;;;;;5.30;1.20;;;22.60;95.00;;;;;;5008978;28;20045;-64
2023/02/05 09:30:45;;;;;;;6.10;1.92;;;22.60;95.70;;;;;;5006702;28;20694;-66
2023/02/05 09:33:13;;;;;;;5.80;1.20;;;22.60;95.90;;;;;;5006817;28;20124;-65
2023/02/05 09:35:41;;;;;;;6.78;0.93;;;22.60;96.50;;;;;;5003509;28;20037;-64
2023/02/05 09:38:11;;;;;;;6.90;1.00;;;22.60;96.90;;;;;;5005563;28;20513;-65
2023/02/05 09:40:51;;;;;;;4.88;1.40;;;22.60;97.40;;;;;;5006007;28;20506;-65
2023/02/05 09:43:27;;;;;;;3.53;1.00;;;22.50;98.30;;;;;;5005578;28;20101;-63
2023/02/05 09:46:06;;;;;;;3.55;1.02;;;22.40;99.30;;;;;;5006010;28;20060;-65
2023/02/05 09:48:48;;;;;;;3.22;1.00;;;22.30;99.90;;;;;;5005870;28;20041;-65
2023/02/05 09:51:38;;;;;;;6.22;0.90;;;22.30;99.90;;;;;;5001172;28;20109;-65
2023/02/05 09:54:25;;;;;;;4.53;0.88;;;22.30;99.90;;;;;;5008396;28;20274;-65
2023/02/05 09:56:57;;;;;;;4.72;1.00;;;22.30;99.90;;;;;;5005554;28;20392;-65
2023/02/05 09:59:27;;;;;;;4.13;0.88;;;22.20;99.90;;;;;;5005939;28;20026;-65
2023/02/05 10:01:56;;;;;;;5.82;0.75;;;22.20;99.90;;;;;;5003718;28;20107;-64
2023/02/05 10:04:25;;;;;;;3.75;0.75;;;22.20;99.90;;;;;;5005110;28;20184;-65
2023/02/05 10:07:07;;;;;;;4.60;1.10;;;22.20;99.90;;;;;;5003797;28;20125;-65
2023/02/05 10:09:37;;;;;;;4.55;0.90;;;22.20;99.90;;;;;;5006092;28;20041;-65
2023/02/05 10:12:47;;;;;;;4.18;0.90;;;22.20;99.90;;;;;;5010057;28;20037;-62
2023/02/05 10:15:46;;;;;;;5.22;0.63;;;22.20;99.90;;;;;;4972634;28;20526;-65
2023/02/05 10:18:25;;;;;;;11.57;1.50;;;22.10;99.90;;;;;;5009897;28;20092;-65
2023/02/05 10:20:56;;;;;;;4.72;0.82;;;22.10;99.90;;;;;;5009634;28;20103;-66
2023/02/05 10:23:39;;;;;;;6.13;0.82;;;22.00;99.90;;;;;;5009509;28;20022;-65
2023/02/05 10:26:17;;;;;;;5.80;1.07;;;22.10;99.90;;;;;;4991366;28;20414;-65
2023/02/05 10:29:05;;;;;;;3.92;1.08;;;22.20;99.90;;;;;;4980092;28;21253;-66
2023/02/05 10:31:54;;;;;;;6.38;1.17;;;22.20;99.90;;;;;;5008856;28;20026;-66
2023/02/05 10:34:33;;;;;;;5.38;0.93;;;22.20;99.90;;;;;;5000668;28;20515;-66
2023/02/05 10:37:03;;;;;;;6.88;1.77;;;22.20;99.90;;;;;;5008184;28;20034;-67
2023/02/05 10:39:31;;;;;;;5.82;1.00;;;22.20;99.90;;;;;;5009498;28;20026;-66
2023/02/05 10:42:24;;;;;;;4.95;1.00;;;22.20;99.90;;;;;;5011405;28;20522;-66
2023/02/05 10:45:16;;;;;;;5.50;1.00;;;22.20;99.90;;;;;;4990021;28;20120;-66
2023/02/05 10:48:08;;;;;;;4.47;1.30;;;22.20;99.90;;;;;;5009025;28;20088;-64
2023/02/05 10:50:59;;;;;;;10.32;1.30;;;22.20;99.90;;;;;;5008804;28;20509;-66
2023/02/05 10:53:28;;;;;;;8.65;1.02;;;22.20;99.90;;;;;;4989404;28;20034;-66
2023/02/05 10:55:57;;;;;;;3.78;1.08;;;22.10;99.90;;;;;;4998141;28;20044;-66
2023/02/05 10:58:34;;;;;;;6.55;1.52;;;22.10;99.90;;;;;;5008536;28;20485;-66
2023/02/05 11:01:04;;;;;;;3.58;1.13;;;22.10;99.90;;;;;;5008924;28;20088;-66
2023/02/05 11:03:32;;;;;;;11.43;1.20;;;22.20;99.90;;;;;;5010544;28;20180;-66
2023/02/05 11:06:01;;;;;;;8.57;1.33;;;22.20;99.90;;;;;;5008299;28;20087;-66
2023/02/05 11:08:39;;;;;;;6.90;1.20;;;22.20;99.90;;;;;;5005547;28;20030;-66
2023/02/05 11:11:18;;;;;;;7.63;1.50;;;22.20;99.90;;;;;;5005079;28;20038;-66
2023/02/05 11:13:51;;;;;;;5.90;0.88;;;22.20;99.90;;;;;;5007528;28;20057;-65
2023/02/05 11:16:18;;;;;;;4.43;0.82;;;22.20;99.90;;;;;;5008054;28;20064;-66
2023/02/05 11:18:55;;;;;;;5.82;1.05;;;22.20;99.90;;;;;;5008832;28;20105;-64
2023/02/05 11:21:22;;;;;;;9.70;1.60;;;22.20;99.90;;;;;;4991421;28;20057;-65
2023/02/05 11:23:57;;;;;;;6.72;1.63;;;22.20;99.90;;;;;;4991271;28;20033;-64
2023/02/05 11:26:29;;;;;;;7.93;1.27;;;22.20;99.90;;;;;;4996827;28;20038;-64
2023/02/05 11:28:57;;;;;;;4.13;1.13;;;22.20;99.90;;;;;;5006516;28;20022;-66
2023/02/05 11:31:24;;;;;;;5.32;1.00;;;22.20;99.90;;;;;;5016243;28;20038;-63
2023/02/05 11:34:09;;;;;;;3.58;1.33;;;22.10;99.90;;;;;;5010581;28;20018;-61
2023/02/05 11:36:51;;;;;;;7.45;1.38;;;22.10;99.90;;;;;;5004425;28;20026;-61
2023/02/05 11:39:38;;;;;;;8.70;1.15;;;22.00;99.90;;;;;;5011233;28;20542;-61
2023/02/05 11:42:17;;;;;;;8.13;1.35;;;21.90;99.90;;;;;;5011578;28;20096;-61
2023/02/05 11:45:02;;;;;;;5.28;1.10;;;21.90;99.90;;;;;;5011684;28;20053;-61
2023/02/05 11:47:32;;;;;;;11.57;1.92;;;21.80;99.90;;;;;;5011393;28;20034;-61
2023/02/05 11:50:00;;;;;;;12.23;1.65;;;21.80;99.90;;;;;;5011437;28;20512;-61
2023/02/05 11:52:31;;;;;;;11.93;1.88;;;21.80;99.90;;;;;;5024852;28;20086;-61
2023/02/05 11:54:58;;;;;;;8.13;1.45;;;21.80;99.90;;;;;;4993743;28;20026;-61
2023/02/05 11:57:41;;;;;;;8.75;1.40;;;21.80;99.90;;;;;;5011179;28;20455;-61
2023/02/05 12:00:11;;;;;;;8.10;2.03;;;21.90;99.90;;;;;;5011321;28;20029;-61
2023/02/05 12:02:42;;;;;;;9.95;1.58;;;21.90;99.90;;;;;;5011095;28;20095;-61
2023/02/05 12:05:13;;;;;;;6.22;1.55;;;22.00;99.90;;;;;;4993465;28;20034;-60
2023/02/05 12:07:50;;;;;;;12.57;2.08;;;22.00;99.90;;;;;;5010965;28;20040;-61
2023/02/05 12:10:28;;;;;;;7.90;1.33;;;22.00;99.90;;;;;;5011250;28;20026;-61
2023/02/05 12:13:03;;;;;;;7.80;1.35;;;22.00;99.90;;;;;;5010947;28;20038;-61
2023/02/05 12:15:36;;;;;;;;;;;22.10;99.90;;;;;;5011365;28;20034;-61
2023/02/05 12:18:30;;;;;;;10.93;1.30;;;22.10;99.90;;;;;;5010470;28;19998;-63
2023/02/05 12:21:08;;;;;;;15.70;1.73;;;22.10;99.90;;;;;;5010314;28;20018;-62
2023/02/05 12:23:53;;;;;;;14.05;1.30;;;22.00;99.90;;;;;;5010246;28;20040;-62
2023/02/05 12:26:32;;;;;;;8.98;1.20;;;22.00;99.90;;;;;;5009938;28;20049;-63
2023/02/05 12:29:27;;;;;;;9.55;1.73;;;22.00;99.90;;;;;;5016731;28;20022;-61
2023/02/05 12:32:07;;;;;;;9.77;1.65;;;22.00;99.90;;;;;;5012909;28;20035;-63
2023/02/05 12:34:59;;;;;;;11.57;1.45;;;21.90;99.90;;;;;;5025366;28;20084;-63
2023/02/05 12:37:44;;;;;;;10.15;1.20;;;21.80;99.90;;;;;;5006715;28;20033;-63
2023/02/05 12:40:41;;;;;;;10.05;1.67;;;21.70;99.90;;;;;;5006962;28;20486;-63
2023/02/05 12:43:48;;;;;;;10.88;1.73;;;21.70;99.90;;;;;;5015283;28;20093;-64
2023/02/05 12:46:33;;;;;;;9.00;1.48;;;21.60;99.90;;;;;;5009237;28;20081;-64
2023/02/05 12:49:15;;;;;;;10.20;1.55;;;21.60;99.90;;;;;;5006739;28;20141;-64
2023/02/05 12:52:06;;;;;;;13.88;2.20;;;21.50;99.90;;;;;;5020854;28;20029;-64
2023/02/05 12:54:43;;;;;;;11.07;2.20;;;21.40;99.90;;;;;;5002430;28;20486;-64
2023/02/05 12:57:19;;;;;;;8.30;1.75;;;21.30;99.90;;;;;;5010462;28;20036;-63
2023/02/05 12:59:49;;;;;;;9.15;1.83;;;21.30;99.90;;;;;;5010137;28;20104;-62
2023/02/05 13:02:36;;;;;;;16.02;3.10;;;21.20;99.90;;;;;;5008269;28;20037;-62
2023/02/05 13:05:16;;;;;;;9.52;2.00;;;21.20;99.90;;;;;;5006679;28;20036;-63
2023/02/05 13:07:47;;;;;;;13.70;1.90;;;21.10;99.90;;;;;;5007656;28;20065;-63
2023/02/05 13:10:37;;;;;;;9.55;1.55;;;21.10;99.90;;;;;;5006984;28;20502;-63
2023/02/05 13:13:10;;;;;;;9.90;2.35;;;21.20;99.90;;;;;;5024724;28;20034;-63
2023/02/05 13:15:43;;;;;;;8.93;2.28;;;21.20;99.90;;;;;;5012975;28;20048;-63
2023/02/05 13:18:48;;;;;;;13.25;2.08;;;21.30;99.90;;;;;;5011135;28;20057;-63